Time;durP1;ratioP1;P1;durP2;ratioP2;P2;SDS_P1;SDS_P2;PMS_P1;PMS_P2;Temp;Humidity;BMP_temperature;BMP_pressure;BME280_temperature;BME280_humidity;BME280_pressure;Samples;Min_cycle;Max_cycle;Signal;HPM_P1;HPM_P2
2023/11/07 00:00:47;;;;;;;1.47;0.80;;;18.90;73.10;;;;;;5055189;28;20492;-87
2023/11/07 00:03:14;;;;;;;1.30;0.80;;;18.90;73.10;;;;;;5055010;28;20994;-87
2023/11/07 00:05:40;;;;;;;1.27;0.80;;;18.90;73.10;;;;;;5054757;28;21072;-94
2023/11/07 00:08:06;;;;;;;1.60;0.97;;;18.90;73.20;;;;;;5054681;28;20666;-87
2023/11/07 00:10:33;;;;;;;1.60;0.90;;;18.90;73.10;;;;;;5054916;28;20560;-88
2023/11/07 00:13:01;;;;;;;1.27;0.83;;;18.90;73.10;;;;;;5054772;28;20478;-89
2023/11/07 00:15:28;;;;;;;1.20;1.00;;;18.90;73.10;;;;;;5054844;28;20538;-94
2023/11/07 00:17:55;;;;;;;1.40;0.73;;;18.90;73.10;;;;;;5054772;28;20530;-87
2023/11/07 00:20:22;;;;;;;1.83;0.80;;;18.90;73.10;;;;;;5054748;28;20450;-87
2023/11/07 00:22:49;;;;;;;1.77;1.20;;;18.90;73.10;;;;;;5054650;28;20434;-87
2023/11/07 00:25:16;;;;;;;1.00;0.70;;;18.90;73.10;;;;;;5054808;28;20478;-87
2023/11/07 00:27:43;;;;;;;1.67;0.80;;;18.90;73.10;;;;;;5054707;28;20844;-88
2023/11/07 00:30:12;;;;;;;1.10;0.80;;;18.90;73.20;;;;;;5054504;28;20527;-93
2023/11/07 00:32:39;;;;;;;1.50;0.90;;;18.90;73.10;;;;;;5054472;28;20439;-88
2023/11/07 00:35:07;;;;;;;1.17;0.87;;;18.90;73.10;;;;;;5054506;28;20436;-87
2023/11/07 00:37:34;;;;;;;1.13;0.90;;;18.90;73.20;;;;;;5053431;28;20440;-87
2023/11/07 00:40:01;;;;;;;1.47;0.90;;;18.90;73.10;;;;;;5054234;28;20555;-87
2023/11/07 00:42:28;;;;;;;1.00;0.80;;;18.90;73.10;;;;;;5054537;28;20534;-87
2023/11/07 00:44:55;;;;;;;1.40;0.90;;;18.90;73.10;;;;;;5054286;28;20526;-87
2023/11/07 00:47:23;;;;;;;1.77;1.17;;;18.90;73.10;;;;;;5054019;28;20579;-87
2023/11/07 00:49:50;;;;;;;1.23;1.07;;;18.90;73.10;;;;;;5054062;28;20535;-87
2023/11/07 00:52:18;;;;;;;1.00;0.83;;;18.80;73.00;;;;;;5054161;28;20475;-87
2023/11/07 00:54:46;;;;;;;1.27;0.83;;;18.80;73.00;;;;;;5054378;28;20762;-87
2023/11/07 00:57:13;;;;;;;1.10;0.70;;;18.90;73.20;;;;;;5053963;28;20934;-87
2023/11/07 00:59:40;;;;;;;1.67;0.90;;;18.80;73.00;;;;;;5054011;28;20474;-92
2023/11/07 01:02:07;;;;;;;1.10;0.80;;;18.80;73.00;;;;;;5054006;28;20436;-87
2023/11/07 01:04:36;;;;;;;1.60;1.00;;;18.80;73.10;;;;;;5053921;28;20460;-87
2023/11/07 01:07:03;;;;;;;1.10;0.80;;;18.80;73.00;;;;;;5053766;28;20521;-87
2023/11/07 01:09:30;;;;;;;1.20;1.00;;;18.80;73.00;;;;;;5053543;28;20455;-87
2023/11/07 01:11:57;;;;;;;1.53;1.00;;;18.80;73.00;;;;;;5053628;28;20566;-87
2023/11/07 01:14:24;;;;;;;1.00;0.80;;;18.80;73.00;;;;;;5053602;28;20437;-87
2023/11/07 01:16:51;;;;;;;1.50;0.90;;;18.80;73.00;;;;;;5053567;28;20520;-88
2023/11/07 01:19:20;;;;;;;1.10;0.80;;;18.80;73.00;;;;;;5053624;28;20530;-87
2023/11/07 01:21:48;;;;;;;1.57;0.77;;;18.80;73.00;;;;;;5053618;28;20471;-87
2023/11/07 01:24:15;;;;;;;1.00;0.80;;;18.80;73.10;;;;;;5053764;28;20435;-87
2023/11/07 01:26:42;;;;;;;1.30;0.80;;;18.80;73.00;;;;;;5053435;28;20491;-87
2023/11/07 01:29:08;;;;;;;1.43;0.83;;;18.80;73.00;;;;;;5053370;28;20482;-87
2023/11/07 01:31:35;;;;;;;1.17;0.80;;;18.80;73.00;;;;;;5053390;28;20435;-87
2023/11/07 01:34:02;;;;;;;1.00;0.70;;;18.80;73.00;;;;;;5053429;28;20857;-87
2023/11/07 01:36:29;;;;;;;1.30;0.83;;;18.80;73.00;;;;;;5053340;28;20554;-87
2023/11/07 01:38:57;;;;;;;1.30;1.03;;;18.80;73.90;;;;;;5053214;28;20997;-87
2023/11/07 01:41:24;;;;;;;1.20;1.00;;;18.80;73.00;;;;;;5053288;28;20534;-88
2023/11/07 01:43:51;;;;;;;1.10;0.73;;;18.80;73.00;;;;;;5053303;28;20529;-87
2023/11/07 01:46:18;;;;;;;1.00;0.80;;;18.80;73.90;;;;;;5053349;28;20568;-87
2023/11/07 01:48:45;;;;;;;1.63;1.13;;;18.80;73.00;;;;;;5052997;28;20521;-87
2023/11/07 01:51:12;;;;;;;1.07;0.77;;;18.80;73.00;;;;;;5053116;28;20439;-87
2023/11/07 01:53:40;;;;;;;1.00;0.73;;;18.80;73.00;;;;;;5053170;28;20504;-87
2023/11/07 01:56:09;;;;;;;1.20;0.80;;;18.80;73.00;;;;;;5053187;28;20875;-87
2023/11/07 01:58:36;;;;;;;1.10;0.90;;;18.80;73.00;;;;;;5053018;28;20445;-87
2023/11/07 02:01:05;;;;;;;1.30;0.90;;;18.80;73.00;;;;;;5053053;28;20975;-87
2023/11/07 02:03:32;;;;;;;1.10;0.80;;;18.80;73.00;;;;;;5052955;28;20435;-87
2023/11/07 02:05:59;;;;;;;1.10;1.00;;;18.80;73.00;;;;;;5052871;28;20474;-87
2023/11/07 02:08:26;;;;;;;1.10;0.90;;;18.80;73.00;;;;;;5052761;28;20467;-87
2023/11/07 02:10:53;;;;;;;1.27;1.03;;;18.80;73.00;;;;;;5053125;28;20526;-87
2023/11/07 02:13:21;;;;;;;1.17;0.73;;;18.80;73.00;;;;;;5052973;28;20556;-87
2023/11/07 02:15:48;;;;;;;1.50;0.80;;;18.80;73.00;;;;;;5052958;28;20434;-87
2023/11/07 02:18:15;;;;;;;1.60;0.80;;;18.80;73.00;;;;;;5053075;28;20959;-94
2023/11/07 02:20:42;;;;;;;1.10;0.70;;;18.80;73.00;;;;;;5052869;28;20531;-87
2023/11/07 02:23:10;;;;;;;1.00;0.70;;;18.80;73.00;;;;;;5053060;28;20982;-87
2023/11/07 02:25:39;;;;;;;1.20;0.87;;;18.80;73.00;;;;;;5053131;28;20439;-87
2023/11/07 02:28:08;;;;;;;1.00;0.70;;;18.80;73.10;;;;;;5053019;28;20439;-95
2023/11/07 02:30:36;;;;;;;1.20;0.90;;;18.80;73.00;;;;;;5052844;28;20804;-87
2023/11/07 02:33:04;;;;;;;1.40;0.90;;;18.70;73.00;;;;;;5052736;28;20438;-95
2023/11/07 02:35:32;;;;;;;1.03;0.80;;;18.80;73.00;;;;;;5052668;28;20461;-87
2023/11/07 02:37:59;;;;;;;1.10;0.80;;;18.80;73.00;;;;;;5052666;28;20467;-87
2023/11/07 02:40:26;;;;;;;1.00;0.73;;;18.80;73.00;;;;;;5052698;28;20556;-87
2023/11/07 02:42:54;;;;;;;1.13;0.80;;;18.80;73.10;;;;;;5052750;28;20530;-87
2023/11/07 02:45:21;;;;;;;1.40;0.90;;;18.80;73.10;;;;;;5052652;28;20435;-87
2023/11/07 02:47:47;;;;;;;1.10;0.80;;;18.80;73.00;;;;;;5052265;28;20480;-95
2023/11/07 02:50:14;;;;;;;1.00;0.70;;;18.80;73.00;;;;;;5052599;28;20525;-87
2023/11/07 02:52:41;;;;;;;1.10;0.87;;;18.80;73.00;;;;;;5052550;28;20870;-87
2023/11/07 02:55:08;;;;;;;1.30;0.90;;;18.80;73.00;;;;;;5052640;28;20536;-87
2023/11/07 02:57:35;;;;;;;1.00;0.80;;;18.80;73.00;;;;;;5052540;28;20920;-87
2023/11/07 03:00:04;;;;;;;1.00;0.70;;;18.80;73.00;;;;;;5052996;28;20438;-87
2023/11/07 03:02:34;;;;;;;1.53;0.90;;;18.80;73.00;;;;;;5056187;28;20536;-87
2023/11/07 03:05:01;;;;;;;1.10;0.70;;;18.70;73.00;;;;;;5056192;28;20444;-95
2023/11/07 03:07:28;;;;;;;1.00;0.80;;;18.80;73.00;;;;;;5055809;28;20573;-87
2023/11/07 03:09:54;;;;;;;1.10;0.80;;;18.80;73.00;;;;;;5056093;28;20816;-87
2023/11/07 03:12:22;;;;;;;1.00;0.80;;;18.80;73.00;;;;;;5056009;28;20512;-87
2023/11/07 03:14:49;;;;;;;1.00;0.80;;;18.80;73.00;;;;;;5055925;28;20514;-87
2023/11/07 03:17:17;;;;;;;1.80;0.90;;;18.80;73.00;;;;;;5055939;28;20441;-87
2023/11/07 03:19:49;;;;;;;1.20;0.90;;;18.80;73.00;;;;;;5055984;28;20431;-88
2023/11/07 03:22:16;;;;;;;1.37;0.80;;;18.80;73.00;;;;;;5056178;28;20942;-95
2023/11/07 03:24:43;;;;;;;1.97;0.80;;;18.70;72.90;;;;;;5055684;28;20526;-87
2023/11/07 03:27:10;;;;;;;1.30;0.80;;;18.70;72.90;;;;;;5055733;28;20494;-87
2023/11/07 03:29:37;;;;;;;1.10;0.80;;;18.70;72.90;;;;;;5055707;28;20842;-88
2023/11/07 03:32:04;;;;;;;1.20;0.77;;;18.70;72.90;;;;;;5055625;28;20449;-87
2023/11/07 03:34:33;;;;;;;1.20;0.90;;;18.80;73.00;;;;;;5055802;28;20475;-94
2023/11/07 03:37:00;;;;;;;1.57;0.90;;;18.70;72.90;;;;;;5055560;28;20958;-87
2023/11/07 03:39:27;;;;;;;1.10;0.80;;;18.70;72.90;;;;;;5055473;28;20558;-87
2023/11/07 03:41:53;;;;;;;1.00;0.80;;;18.80;73.00;;;;;;5055451;28;20528;-87
2023/11/07 03:44:20;;;;;;;1.00;0.77;;;18.70;72.90;;;;;;5055545;28;20441;-87
2023/11/07 03:46:47;;;;;;;1.77;0.80;;;18.70;73.00;;;;;;5055228;28;20499;-87
2023/11/07 03:49:14;;;;;;;1.40;0.70;;;18.70;72.90;;;;;;5055279;28;20856;-87
2023/11/07 03:51:42;;;;;;;1.53;0.87;;;18.70;72.90;;;;;;5055302;28;20947;-95
2023/11/07 03:54:09;;;;;;;1.13;0.80;;;18.70;73.00;;;;;;5055670;28;20448;-87
2023/11/07 03:56:36;;;;;;;2.83;1.03;;;18.70;72.80;;;;;;5055311;28;20534;-87
2023/11/07 03:59:03;;;;;;;1.00;0.70;;;18.70;72.90;;;;;;5055260;28;20443;-87
2023/11/07 04:01:40;;;;;;;1.40;0.80;;;18.70;72.90;;;;;;5055191;28;20452;-87
2023/11/07 04:04:07;;;;;;;1.60;0.70;;;18.70;72.90;;;;;;5055244;28;20440;-87
2023/11/07 04:06:34;;;;;;;1.13;0.90;;;18.70;72.90;;;;;;5054927;28;20583;-88
2023/11/07 04:09:04;;;;;;;1.00;0.70;;;18.70;72.90;;;;;;5054845;28;20473;-87
2023/11/07 04:11:32;;;;;;;1.00;0.80;;;18.70;72.90;;;;;;5054644;28;20982;-94
2023/11/07 04:14:00;;;;;;;1.20;0.90;;;18.70;72.90;;;;;;5054963;28;20434;-87
2023/11/07 04:16:27;;;;;;;2.20;0.90;;;18.70;72.90;;;;;;5054822;28;20445;-87
2023/11/07 04:18:54;;;;;;;1.10;0.87;;;18.70;72.90;;;;;;5054835;28;20523;-87
2023/11/07 04:21:21;;;;;;;1.00;0.80;;;18.70;72.90;;;;;;5054706;28;20792;-87
2023/11/07 04:23:48;;;;;;;1.20;1.00;;;18.70;72.90;;;;;;5054625;28;20958;-88
2023/11/07 04:26:17;;;;;;;1.10;0.70;;;18.70;72.90;;;;;;5054418;28;20522;-87
2023/11/07 04:28:44;;;;;;;1.00;0.70;;;18.70;72.90;;;;;;5054516;28;20577;-87
2023/11/07 04:31:11;;;;;;;1.30;1.00;;;18.70;73.70;;;;;;5054692;28;20485;-87
2023/11/07 04:33:38;;;;;;;0.93;0.60;;;18.70;72.90;;;;;;5054752;28;20497;-87
2023/11/07 04:36:06;;;;;;;1.00;0.73;;;18.70;72.90;;;;;;5054428;28;20435;-87
2023/11/07 04:38:34;;;;;;;1.00;0.80;;;18.70;72.90;;;;;;5054278;28;20476;-87
2023/11/07 04:41:01;;;;;;;1.20;0.70;;;18.70;72.80;;;;;;5054290;28;20518;-87
2023/11/07 04:43:35;;;;;;;1.10;0.90;;;18.70;72.80;;;;;;5054367;28;20443;-95
2023/11/07 04:46:02;;;;;;;1.20;1.00;;;18.70;72.90;;;;;;5054063;28;21080;-87
2023/11/07 04:48:31;;;;;;;1.30;0.80;;;18.70;72.90;;;;;;5054027;28;20596;-87
2023/11/07 04:50:59;;;;;;;1.07;0.77;;;18.70;72.80;;;;;;5054158;28;20438;-88
2023/11/07 04:53:26;;;;;;;1.00;0.70;;;18.70;72.90;;;;;;5054155;28;20438;-88
2023/11/07 04:55:53;;;;;;;1.00;0.70;;;18.70;72.80;;;;;;5054084;28;20443;-87
2023/11/07 04:58:21;;;;;;;1.20;0.70;;;18.70;72.80;;;;;;5053877;28;20443;-87
2023/11/07 05:00:49;;;;;;;1.00;0.77;;;18.70;72.90;;;;;;5054117;28;20608;-88
2023/11/07 05:03:16;;;;;;;1.10;0.80;;;18.70;72.80;;;;;;5053973;28;20437;-87
2023/11/07 05:05:43;;;;;;;1.10;0.80;;;18.70;72.80;;;;;;5053928;28;20484;-87
2023/11/07 05:08:09;;;;;;;1.30;0.80;;;18.70;72.80;;;;;;5053576;28;20845;-87
2023/11/07 05:10:36;;;;;;;1.10;0.80;;;18.70;72.80;;;;;;5053730;28;20533;-87
2023/11/07 05:13:06;;;;;;;1.10;0.70;;;18.70;72.90;;;;;;5053653;28;20483;-87
2023/11/07 05:15:33;;;;;;;1.40;0.80;;;18.70;72.80;;;;;;5053691;28;20852;-87
2023/11/07 05:18:01;;;;;;;1.03;0.80;;;18.70;72.80;;;;;;5053563;28;20956;-87
2023/11/07 05:20:28;;;;;;;1.20;0.80;;;18.70;73.70;;;;;;5053563;28;20516;-93
2023/11/07 05:22:55;;;;;;;1.27;0.80;;;18.70;72.80;;;;;;5053219;28;20524;-87
2023/11/07 05:25:22;;;;;;;1.10;0.80;;;18.70;72.80;;;;;;5053615;28;20444;-95
2023/11/07 05:27:49;;;;;;;1.30;0.70;;;18.70;72.80;;;;;;5053176;28;20489;-87
2023/11/07 05:30:16;;;;;;;1.00;0.70;;;18.70;72.80;;;;;;5053394;28;20790;-87
2023/11/07 05:32:46;;;;;;;1.03;0.70;;;18.70;72.80;;;;;;5053403;28;20543;-88
2023/11/07 05:35:15;;;;;;;1.10;0.80;;;18.70;72.90;;;;;;5053543;28;20435;-88
2023/11/07 05:37:42;;;;;;;1.10;0.80;;;18.70;72.80;;;;;;5053557;28;20485;-87
2023/11/07 05:40:13;;;;;;;1.10;0.70;;;18.70;72.80;;;;;;5053333;28;20493;-87
2023/11/07 05:42:40;;;;;;;1.77;0.70;;;18.70;72.80;;;;;;5053430;28;20792;-87
2023/11/07 05:45:08;;;;;;;1.00;0.70;;;18.70;72.90;;;;;;5053256;28;20445;-87
2023/11/07 05:47:37;;;;;;;1.00;0.73;;;18.70;72.80;;;;;;5053063;28;20994;-87
2023/11/07 05:50:05;;;;;;;1.00;0.70;;;18.70;72.80;;;;;;5053341;28;20932;-88
2023/11/07 05:52:33;;;;;;;1.30;0.83;;;18.70;72.80;;;;;;5053272;28;20943;-87
2023/11/07 05:55:01;;;;;;;1.07;0.70;;;18.70;72.80;;;;;;5053139;28;20531;-87
2023/11/07 05:57:28;;;;;;;1.20;0.90;;;18.70;72.80;;;;;;5053260;28;20497;-87
2023/11/07 05:59:54;;;;;;;1.10;0.70;;;18.70;72.80;;;;;;5053127;28;20527;-87
2023/11/07 06:02:21;;;;;;;1.30;1.03;;;18.70;72.80;;;;;;5053090;28;20440;-95
2023/11/07 06:04:48;;;;;;;1.00;0.80;;;18.70;72.80;;;;;;5053090;28;20528;-87
2023/11/07 06:07:15;;;;;;;1.13;0.70;;;18.70;72.90;;;;;;5052830;28;20480;-87
2023/11/07 06:09:43;;;;;;;1.10;0.70;;;18.70;72.80;;;;;;5052925;28;20544;-87
2023/11/07 06:12:11;;;;;;;1.10;0.70;;;18.70;72.80;;;;;;5052815;28;20567;-87
2023/11/07 06:14:37;;;;;;;1.10;0.80;;;18.70;72.80;;;;;;5052846;28;20535;-87
2023/11/07 06:17:04;;;;;;;1.00;0.73;;;18.70;72.80;;;;;;5053006;28;20539;-88
2023/11/07 06:19:32;;;;;;;1.73;0.80;;;18.70;72.80;;;;;;5052889;28;20439;-87
2023/11/07 06:21:59;;;;;;;1.00;0.70;;;18.70;72.80;;;;;;5052987;28;20923;-96
2023/11/07 06:24:26;;;;;;;1.60;0.80;;;18.70;72.80;;;;;;5052977;28;20475;-91
2023/11/07 06:26:54;;;;;;;1.00;0.70;;;18.70;72.80;;;;;;5052625;28;20531;-87
2023/11/07 06:29:21;;;;;;;1.03;0.80;;;18.70;72.80;;;;;;5052928;28;20523;-87
2023/11/07 06:31:48;;;;;;;1.30;0.70;;;18.70;72.80;;;;;;5052795;28;20444;-87
2023/11/07 06:34:15;;;;;;;1.10;0.73;;;18.70;72.80;;;;;;5052884;28;20446;-93
2023/11/07 06:36:42;;;;;;;1.10;0.80;;;18.70;72.80;;;;;;5055941;28;20464;-90
2023/11/07 06:39:10;;;;;;;0.93;0.70;;;18.60;72.70;;;;;;5056715;28;20549;-87
2023/11/07 06:41:38;;;;;;;1.10;0.73;;;18.60;72.70;;;;;;5056634;28;20440;-87
2023/11/07 06:44:08;;;;;;;1.00;0.70;;;18.60;72.70;;;;;;5056612;28;20939;-87
2023/11/07 06:46:35;;;;;;;1.00;0.70;;;18.70;72.80;;;;;;5056647;28;20506;-93
2023/11/07 06:49:04;;;;;;;1.00;0.70;;;18.70;72.80;;;;;;5056437;28;20579;-87
2023/11/07 06:51:31;;;;;;;1.40;0.90;;;18.70;72.80;;;;;;5056603;28;20438;-87
2023/11/07 06:54:00;;;;;;;1.43;0.77;;;18.60;72.70;;;;;;5056430;28;20530;-87
2023/11/07 06:56:27;;;;;;;1.07;0.70;;;18.70;72.80;;;;;;5056338;28;20446;-87
2023/11/07 06:58:54;;;;;;;1.30;0.70;;;18.70;72.80;;;;;;5056253;28;20532;-87
2023/11/07 07:01:25;;;;;;;1.00;0.70;;;18.70;72.80;;;;;;5056268;28;20511;-87
2023/11/07 07:03:52;;;;;;;1.00;0.70;;;18.70;72.80;;;;;;5056328;28;20502;-87
2023/11/07 07:06:21;;;;;;;1.00;0.70;;;18.60;72.70;;;;;;5056053;28;20862;-87
2023/11/07 07:08:47;;;;;;;1.00;0.80;;;18.70;72.80;;;;;;5056003;28;20486;-95
2023/11/07 07:11:14;;;;;;;1.10;0.80;;;18.70;72.80;;;;;;5055884;28;20442;-87
2023/11/07 07:13:41;;;;;;;1.50;0.70;;;18.70;72.80;;;;;;5056149;28;20941;-87
2023/11/07 07:16:08;;;;;;;1.10;0.80;;;18.70;72.80;;;;;;5056005;28;20441;-87
2023/11/07 07:18:39;;;;;;;1.10;0.90;;;18.70;72.80;;;;;;5055916;28;20870;-87
2023/11/07 07:21:07;;;;;;;1.20;0.70;;;18.70;72.80;;;;;;5055908;28;20443;-87
2023/11/07 07:23:36;;;;;;;1.20;0.80;;;18.70;72.80;;;;;;5055789;28;20447;-87
2023/11/07 07:26:08;;;;;;;1.20;0.90;;;18.70;72.70;;;;;;5056007;28;20439;-87
2023/11/07 07:28:37;;;;;;;1.00;0.80;;;18.70;72.70;;;;;;5055707;28;20580;-87
2023/11/07 07:31:06;;;;;;;1.10;0.80;;;18.70;72.70;;;;;;5055691;28;20446;-87
2023/11/07 07:33:34;;;;;;;1.00;0.63;;;18.70;72.70;;;;;;5055604;28;20451;-87
2023/11/07 07:36:04;;;;;;;2.13;0.80;;;18.70;72.70;;;;;;5055694;28;20440;-95
2023/11/07 07:38:31;;;;;;;1.00;0.60;;;18.70;72.70;;;;;;5055513;28;20544;-87
2023/11/07 07:40:58;;;;;;;1.00;0.80;;;18.70;72.70;;;;;;5055487;28;20432;-87
2023/11/07 07:43:26;;;;;;;1.00;0.70;;;18.70;72.60;;;;;;5055708;28;20540;-87
2023/11/07 07:45:55;;;;;;;1.00;0.60;;;18.70;72.60;;;;;;5054843;28;20479;-87
2023/11/07 07:48:22;;;;;;;1.10;0.77;;;18.70;72.70;;;;;;5055311;28;20487;-87
2023/11/07 07:50:51;;;;;;;1.10;0.70;;;18.80;72.70;;;;;;5055404;28;21005;-87
2023/11/07 07:53:20;;;;;;;1.00;0.80;;;18.80;72.70;;;;;;5055475;28;20438;-87
2023/11/07 07:55:50;;;;;;;1.20;0.90;;;18.80;72.70;;;;;;5055266;28;20469;-95
2023/11/07 07:58:18;;;;;;;1.00;0.70;;;18.80;72.70;;;;;;5055251;28;20531;-90
2023/11/07 08:00:49;;;;;;;1.00;0.70;;;18.80;72.70;;;;;;5055198;28;20477;-87
2023/11/07 08:03:16;;;;;;;1.10;0.70;;;18.80;72.70;;;;;;5055142;28;20467;-87
2023/11/07 08:05:44;;;;;;;1.07;0.70;;;18.80;72.60;;;;;;5054974;28;20435;-87
2023/11/07 08:08:11;;;;;;;1.30;0.70;;;18.80;72.60;;;;;;5054987;28;20484;-87
2023/11/07 08:10:40;;;;;;;1.00;0.80;;;18.80;72.60;;;;;;5055175;28;20871;-87
2023/11/07 08:13:09;;;;;;;1.60;0.70;;;18.80;72.60;;;;;;5054860;28;20467;-87
2023/11/07 08:15:37;;;;;;;1.20;0.90;;;18.80;72.60;;;;;;5054864;28;20805;-88
2023/11/07 08:18:06;;;;;;;0.90;0.63;;;18.80;72.60;;;;;;5054838;28;20444;-87
2023/11/07 08:20:33;;;;;;;1.10;0.80;;;18.80;72.60;;;;;;5054735;28;20436;-87
2023/11/07 08:23:01;;;;;;;1.20;0.77;;;18.80;72.60;;;;;;5054650;28;20961;-87
2023/11/07 08:25:29;;;;;;;1.00;0.70;;;18.80;72.60;;;;;;5054726;28;20472;-87
2023/11/07 08:27:57;;;;;;;0.97;0.70;;;18.80;72.60;;;;;;5054445;28;20476;-87
2023/11/07 08:30:24;;;;;;;1.00;0.80;;;18.80;73.80;;;;;;5054581;28;20935;-87
2023/11/07 08:32:53;;;;;;;1.00;0.90;;;18.80;72.60;;;;;;5054489;28;20535;-87
2023/11/07 08:35:20;;;;;;;1.00;0.63;;;18.90;72.70;;;;;;5054610;28;20444;-87
2023/11/07 08:37:49;;;;;;;1.13;0.77;;;18.80;72.70;;;;;;5054292;28;20892;-87
2023/11/07 08:40:18;;;;;;;1.10;0.80;;;18.80;72.70;;;;;;5054349;28;20465;-87
2023/11/07 08:42:45;;;;;;;1.00;0.70;;;18.80;72.70;;;;;;5054266;28;20443;-87
2023/11/07 08:45:15;;;;;;;1.30;0.80;;;18.80;72.70;;;;;;5054206;28;20526;-87
2023/11/07 08:47:43;;;;;;;1.40;0.70;;;18.80;72.70;;;;;;5054015;28;20441;-87
2023/11/07 08:50:12;;;;;;;1.10;0.90;;;18.80;72.70;;;;;;5054084;28;20450;-87
2023/11/07 08:52:40;;;;;;;1.20;0.80;;;18.80;72.70;;;;;;5054245;28;20973;-87
2023/11/07 08:55:08;;;;;;;1.10;0.80;;;18.80;72.70;;;;;;5054209;28;20839;-87
2023/11/07 08:57:37;;;;;;;1.10;0.83;;;18.80;72.70;;;;;;5053438;28;20440;-87
2023/11/07 09:00:07;;;;;;;1.00;0.70;;;18.80;73.50;;;;;;5053864;28;20448;-87
2023/11/07 09:02:35;;;;;;;1.17;0.90;;;18.80;72.70;;;;;;5053940;28;20434;-87
2023/11/07 09:05:03;;;;;;;1.10;0.70;;;18.80;72.60;;;;;;5053965;28;20483;-87
2023/11/07 09:07:30;;;;;;;0.90;0.60;;;18.80;72.60;;;;;;5053581;28;20439;-87
2023/11/07 09:09:57;;;;;;;1.00;0.60;;;18.80;72.70;;;;;;5053639;28;20483;-89
2023/11/07 09:12:24;;;;;;;1.00;0.67;;;18.80;72.70;;;;;;5053799;28;20466;-87
2023/11/07 09:14:51;;;;;;;1.30;0.80;;;18.80;72.60;;;;;;5053827;28;20439;-87
2023/11/07 09:17:18;;;;;;;0.93;0.70;;;18.80;72.60;;;;;;5053697;28;20444;-87
2023/11/07 09:19:46;;;;;;;1.00;0.70;;;18.80;72.60;;;;;;5053670;28;20562;-88
2023/11/07 09:22:13;;;;;;;1.10;0.80;;;18.90;72.60;;;;;;5053698;28;20526;-87
2023/11/07 09:24:40;;;;;;;1.00;0.70;;;18.80;72.60;;;;;;5053549;28;20436;-87
2023/11/07 09:27:07;;;;;;;0.90;0.70;;;18.90;72.70;;;;;;5053505;28;20433;-87
2023/11/07 09:29:37;;;;;;;1.00;0.80;;;18.80;72.60;;;;;;5053316;28;20487;-87
2023/11/07 09:32:04;;;;;;;1.00;0.70;;;18.80;72.60;;;;;;5053418;28;20450;-87
2023/11/07 09:34:31;;;;;;;0.90;0.70;;;18.80;72.60;;;;;;5053345;28;20445;-87
2023/11/07 09:37:00;;;;;;;1.00;0.63;;;18.80;72.60;;;;;;5053229;28;20440;-87
2023/11/07 09:39:27;;;;;;;1.07;0.90;;;18.80;72.60;;;;;;5053209;28;20455;-87
2023/11/07 09:41:54;;;;;;;1.00;0.70;;;18.80;72.60;;;;;;5053362;28;20803;-87
2023/11/07 09:44:21;;;;;;;1.00;0.70;;;18.80;72.60;;;;;;5053310;28;20535;-87
2023/11/07 09:46:49;;;;;;;1.40;0.90;;;18.90;72.70;;;;;;5053052;28;20468;-88
2023/11/07 09:49:16;;;;;;;1.00;0.80;;;18.80;72.60;;;;;;5053204;28;20565;-87
2023/11/07 09:51:46;;;;;;;0.97;0.70;;;18.80;72.50;;;;;;5053262;28;20441;-88
2023/11/07 09:54:20;;;;;;;1.00;0.70;;;18.80;72.60;;;;;;5053164;28;20452;-87
2023/11/07 09:56:49;;;;;;;2.70;0.70;;;18.80;72.60;;;;;;5053070;28;20952;-87
2023/11/07 09:59:29;;;;;;;1.30;0.80;;;18.80;72.60;;;;;;5053064;28;21014;-87
2023/11/07 10:01:55;;;;;;;1.00;0.70;;;18.90;72.70;;;;;;5053094;28;20436;-87
2023/11/07 10:04:24;;;;;;;1.00;0.70;;;18.80;72.60;;;;;;5053103;28;20463;-87
2023/11/07 10:06:50;;;;;;;1.07;0.70;;;18.80;72.60;;;;;;5052894;28;20453;-87
2023/11/07 10:09:21;;;;;;;1.00;0.80;;;18.80;72.70;;;;;;5054738;28;20586;-88
2023/11/07 10:11:50;;;;;;;1.00;0.70;;;18.80;72.60;;;;;;5059408;28;20496;-87
2023/11/07 10:14:18;;;;;;;1.10;0.70;;;18.80;72.60;;;;;;5059600;28;20928;-88
2023/11/07 10:16:49;;;;;;;1.00;0.80;;;18.80;72.60;;;;;;5059483;28;20432;-87
2023/11/07 10:19:20;;;;;;;1.00;0.70;;;18.90;72.70;;;;;;5059615;28;20529;-88
2023/11/07 10:21:47;;;;;;;1.07;0.70;;;18.90;72.60;;;;;;5059550;28;20432;-87
2023/11/07 10:24:14;;;;;;;2.07;0.73;;;18.90;72.50;;;;;;5059675;28;20511;-87
2023/11/07 10:26:51;;;;;;;0.90;0.70;;;18.90;72.50;;;;;;5059335;28;20436;-87
2023/11/07 10:29:25;;;;;;;2.60;1.40;;;19.00;72.60;;;;;;5059514;28;20494;-87
2023/11/07 10:32:04;;;;;;;1.00;0.70;;;18.90;72.50;;;;;;5059744;28;20983;-87
2023/11/07 10:34:31;;;;;;;1.30;0.80;;;19.00;72.60;;;;;;5059565;28;20849;-87
2023/11/07 10:36:59;;;;;;;1.27;0.73;;;18.90;72.50;;;;;;5059267;28;20436;-88
2023/11/07 10:39:27;;;;;;;1.50;0.70;;;18.90;72.40;;;;;;5059610;28;20454;-87
2023/11/07 10:41:56;;;;;;;1.00;0.67;;;18.90;72.50;;;;;;5059336;28;20539;-88
2023/11/07 10:44:25;;;;;;;1.10;0.67;;;19.00;72.60;;;;;;5059375;28;20443;-87
2023/11/07 10:46:53;;;;;;;1.20;0.80;;;19.00;72.60;;;;;;5059162;28;20435;-87
2023/11/07 10:49:21;;;;;;;1.10;0.70;;;19.00;72.60;;;;;;5059210;28;20841;-87
2023/11/07 10:51:49;;;;;;;0.97;0.67;;;19.00;72.50;;;;;;5059270;28;20446;-88
2023/11/07 10:54:19;;;;;;;1.00;0.70;;;19.00;72.50;;;;;;5059245;28;20955;-87
2023/11/07 10:56:47;;;;;;;1.00;0.77;;;19.00;73.40;;;;;;5059116;28;20440;-87
2023/11/07 10:59:18;;;;;;;1.00;0.70;;;19.00;72.40;;;;;;5059209;28;20438;-87
2023/11/07 11:01:46;;;;;;;0.90;0.60;;;19.10;72.40;;;;;;5059218;28;20810;-87
2023/11/07 11:04:16;;;;;;;0.90;0.60;;;19.10;72.50;;;;;;5059218;28;20436;-87
2023/11/07 11:06:52;;;;;;;1.53;0.87;;;19.00;72.50;;;;;;5059408;28;20824;-87
2023/11/07 11:09:21;;;;;;;1.20;0.70;;;19.00;72.60;;;;;;5059088;28;20502;-87
2023/11/07 11:11:49;;;;;;;3.00;0.80;;;19.00;72.60;;;;;;5058977;28;20504;-87
2023/11/07 11:14:18;;;;;;;1.00;0.77;;;19.00;72.70;;;;;;5059089;28;20534;-88
2023/11/07 11:16:48;;;;;;;1.10;0.80;;;19.10;72.80;;;;;;5059050;28;20440;-87
2023/11/07 11:19:24;;;;;;;0.90;0.70;;;19.00;72.70;;;;;;5059136;28;20535;-87
2023/11/07 11:22:03;;;;;;;1.30;0.90;;;19.00;72.70;;;;;;5055972;28;20442;-87
2023/11/07 11:24:45;;;;;;;1.43;0.70;;;19.00;72.70;;;;;;5055870;28;20445;-87
2023/11/07 11:27:18;;;;;;;1.30;0.87;;;19.00;72.70;;;;;;5055767;28;20439;-88
2023/11/07 11:29:47;;;;;;;0.90;0.70;;;19.00;72.70;;;;;;5055710;28;20489;-87
2023/11/07 11:32:27;;;;;;;1.10;0.77;;;19.00;72.60;;;;;;5055624;28;20445;-88
2023/11/07 11:35:09;;;;;;;1.10;0.73;;;19.00;72.70;;;;;;5055563;28;20440;-87
2023/11/07 11:38:09;;;;;;;1.00;0.70;;;18.90;72.50;;;;;;5054715;28;20486;-87
2023/11/07 11:40:50;;;;;;;1.00;0.80;;;19.00;72.70;;;;;;5055554;28;20945;-87
2023/11/07 11:43:20;;;;;;;1.00;0.77;;;19.00;73.50;;;;;;5055565;28;20447;-88
2023/11/07 11:45:49;;;;;;;0.90;0.60;;;19.00;72.70;;;;;;5055194;28;20519;-87
2023/11/07 11:48:18;;;;;;;1.00;0.67;;;19.00;73.60;;;;;;5055420;28;20444;-87
2023/11/07 11:50:45;;;;;;;0.90;0.67;;;19.00;72.80;;;;;;5055262;28;20906;-88
2023/11/07 11:53:32;;;;;;;1.00;0.70;;;19.00;72.70;;;;;;5055389;28;20437;-87
2023/11/07 11:56:11;;;;;;;1.10;0.70;;;19.00;72.80;;;;;;5055275;28;20438;-88
2023/11/07 11:58:39;;;;;;;1.20;0.80;;;19.00;72.70;;;;;;5055412;28;20435;-87
2023/11/07 12:01:10;;;;;;;1.00;0.67;;;19.00;72.70;;;;;;5055231;28;20471;-88
2023/11/07 12:03:42;;;;;;;1.47;0.70;;;19.00;72.70;;;;;;5055171;28;20436;-87
2023/11/07 12:06:10;;;;;;;1.57;0.80;;;19.00;72.70;;;;;;5055008;28;20939;-87
2023/11/07 12:08:41;;;;;;;1.00;0.70;;;19.00;72.70;;;;;;5054837;28;20456;-87
2023/11/07 12:11:08;;;;;;;1.00;0.70;;;19.10;72.90;;;;;;5054833;28;20502;-87
2023/11/07 12:13:35;;;;;;;1.00;0.70;;;19.00;73.60;;;;;;5055041;28;20527;-88
2023/11/07 12:16:15;;;;;;;2.50;0.80;;;19.00;72.80;;;;;;5055206;28;20475;-87
2023/11/07 12:18:42;;;;;;;1.13;0.80;;;19.00;72.90;;;;;;5055043;28;20494;-88
2023/11/07 12:21:09;;;;;;;0.90;0.60;;;19.10;73.00;;;;;;5054783;28;20459;-88
2023/11/07 12:23:36;;;;;;;1.10;0.70;;;19.10;73.00;;;;;;5054705;28;20436;-88
2023/11/07 12:26:03;;;;;;;1.00;0.70;;;19.10;73.00;;;;;;5054561;28;20539;-88
2023/11/07 12:28:30;;;;;;;1.20;0.70;;;19.10;73.10;;;;;;5054823;28;20438;-89
2023/11/07 12:30:58;;;;;;;1.10;0.70;;;19.10;73.10;;;;;;5054630;28;20525;-88
2023/11/07 12:33:29;;;;;;;1.30;0.90;;;19.20;73.10;;;;;;5053369;28;20826;-88
2023/11/07 12:35:56;;;;;;;1.07;0.80;;;19.10;73.00;;;;;;5054555;28;20443;-88
2023/11/07 12:38:24;;;;;;;1.03;0.77;;;19.10;73.00;;;;;;5054373;28;21017;-88
2023/11/07 12:40:51;;;;;;;1.00;0.70;;;19.10;73.00;;;;;;5054378;28;20527;-88
2023/11/07 12:43:18;;;;;;;1.20;0.97;;;19.20;73.10;;;;;;5054511;28;20796;-88
2023/11/07 12:45:47;;;;;;;1.00;0.83;;;19.10;73.00;;;;;;5054284;28;20879;-88
2023/11/07 12:48:24;;;;;;;1.00;0.60;;;19.10;72.90;;;;;;5054488;28;20452;-88
2023/11/07 12:50:52;;;;;;;0.90;0.60;;;19.10;72.90;;;;;;5054131;28;21057;-88
2023/11/07 12:53:19;;;;;;;0.90;0.70;;;19.10;73.80;;;;;;5054164;28;20435;-88